createdAt,value
2019-04-11T00:01:36.780Z,8.78
2019-04-11T00:04:02.220Z,8.73
2019-04-11T00:06:31.803Z,8.63
2019-04-11T00:09:00.923Z,8.60
2019-04-11T00:11:30.184Z,8.35
2019-04-11T00:13:59.912Z,8.73
2019-04-11T00:16:29.036Z,8.13
2019-04-11T00:18:58.856Z,8.05
2019-04-11T00:21:28.928Z,9.08
2019-04-11T00:23:58.613Z,7.90
2019-04-11T00:26:28.564Z,7.17
2019-04-11T00:28:58.343Z,8.30
2019-04-11T00:31:28.438Z,9.08
2019-04-11T00:33:58.406Z,8.33
2019-04-11T00:36:28.342Z,8.95
2019-04-11T00:38:57.370Z,8.98
2019-04-11T00:41:26.455Z,9.53
2019-04-11T00:43:55.346Z,8.95
2019-04-11T00:46:24.583Z,8.33
2019-04-11T00:48:54.495Z,8.95
2019-04-11T00:51:23.659Z,9.18
2019-04-11T00:53:53.913Z,8.63
2019-04-11T00:56:24.161Z,9.30
2019-04-11T00:58:53.996Z,9.53
2019-04-11T01:01:23.966Z,9.55
2019-04-11T01:03:53.676Z,9.48
2019-04-11T01:06:22.929Z,9.93
2019-04-11T01:08:51.837Z,8.43
2019-04-11T01:11:21.558Z,9.78
2019-04-11T01:13:53.510Z,9.45
2019-04-11T01:16:23.522Z,9.85
2019-04-11T01:18:52.609Z,9.58
2019-04-11T01:21:21.520Z,9.98
2019-04-11T01:23:51.315Z,9.18
2019-04-11T01:26:21.221Z,10.25
2019-04-11T01:28:51.985Z,9.48
2019-04-11T01:31:22.519Z,10.55
2019-04-11T01:33:51.783Z,9.45
2019-04-11T01:36:20.913Z,10.72
2019-04-11T01:38:52.574Z,10.08
2019-04-11T01:41:22.499Z,10.50
2019-04-11T01:43:56.489Z,10.38
2019-04-11T01:46:22.421Z,11.43
2019-04-11T01:49:06.013Z,11.60
2019-04-11T01:51:35.882Z,10.85
2019-04-11T01:54:05.728Z,10.90
2019-04-11T01:56:34.652Z,10.00
2019-04-11T01:59:04.838Z,10.88
2019-04-11T02:01:35.535Z,11.38
2019-04-11T02:04:06.145Z,10.78
2019-04-11T02:06:36.120Z,9.33
2019-04-11T02:09:08.154Z,9.18
2019-04-11T02:11:37.340Z,8.88
2019-04-11T02:14:13.554Z,9.95
2019-04-11T02:16:38.055Z,9.20
2019-04-11T02:19:07.944Z,7.37
2019-04-11T02:21:37.882Z,9.23
2019-04-11T02:24:15.274Z,8.88
2019-04-11T02:26:47.202Z,8.65
2019-04-11T02:29:17.274Z,8.93
2019-04-11T02:31:47.259Z,8.83
2019-04-11T02:34:16.321Z,8.98
2019-04-11T02:36:45.596Z,8.55
2019-04-11T02:39:17.678Z,8.90
2019-04-11T02:41:46.776Z,9.45
2019-04-11T02:44:30.734Z,9.08
2019-04-11T02:46:57.131Z,9.73
2019-04-11T02:49:17.151Z,10.72
2019-04-11T02:51:47.330Z,10.08
2019-04-11T02:54:18.096Z,9.55
2019-04-11T02:56:50.296Z,8.75
2019-04-11T02:59:19.506Z,8.88
2019-04-11T03:01:50.743Z,10.43
2019-04-11T03:04:21.751Z,9.05
2019-04-11T03:06:51.853Z,8.65
2019-04-11T03:09:22.050Z,8.28
2019-04-11T03:11:51.766Z,8.25
2019-04-11T03:14:20.856Z,8.78
2019-04-11T03:16:59.671Z,8.10
2019-04-11T03:19:36.100Z,9.23
2019-04-11T03:21:52.353Z,8.03
2019-04-11T03:24:24.274Z,9.55
2019-04-11T03:26:54.419Z,9.00
2019-04-11T03:29:24.282Z,9.83
2019-04-11T03:35:17.012Z,8.98
2019-04-11T03:39:48.760Z,10.25
2019-04-11T03:42:15.754Z,10.18
2019-04-11T03:44:35.220Z,9.25
2019-04-11T03:47:16.629Z,9.95
2019-04-11T03:49:39.867Z,10.18
2019-04-11T03:52:01.187Z,10.50
2019-04-11T03:54:34.082Z,9.48
2019-04-11T03:57:01.473Z,9.60
2019-04-11T03:59:31.423Z,9.90
2019-04-11T04:02:01.195Z,9.60
2019-04-11T04:04:30.547Z,9.38
2019-04-11T04:06:59.933Z,10.95
2019-04-11T04:09:29.718Z,10.28
2019-04-11T04:11:59.472Z,9.30
2019-04-11T04:14:30.450Z,10.88
2019-04-11T04:17:14.880Z,11.50
2019-04-11T04:19:47.619Z,9.58
2019-04-11T04:22:20.103Z,11.00
2019-04-11T04:24:51.057Z,11.20
2019-04-11T04:27:23.294Z,10.60
2019-04-11T04:29:55.581Z,12.95
2019-04-11T04:32:25.261Z,10.58
2019-04-11T04:34:56.013Z,10.80
2019-04-11T04:37:26.708Z,11.15
2019-04-11T04:40:16.295Z,10.88
2019-04-11T04:42:32.243Z,11.33
2019-04-11T04:44:58.279Z,11.18
2019-04-11T04:47:38.558Z,11.40
2019-04-11T04:49:59.314Z,11.65
2019-04-11T04:52:29.655Z,11.20
2019-04-11T04:55:00.018Z,13.15
2019-04-11T04:57:31.783Z,12.13
2019-04-11T05:00:02.279Z,11.75
2019-04-11T05:02:32.523Z,12.78
2019-04-11T05:05:03.747Z,12.28
2019-04-11T05:07:36.196Z,12.18
2019-04-11T05:10:06.440Z,13.25
2019-04-11T05:12:34.693Z,13.00
2019-04-11T05:15:05.641Z,13.13
2019-04-11T05:17:34.634Z,14.65
2019-04-11T05:20:05.082Z,13.35
2019-04-11T05:22:35.136Z,12.45
2019-04-11T05:25:06.612Z,13.78
2019-04-11T05:27:35.847Z,13.08
2019-04-11T05:30:05.116Z,13.45
2019-04-11T05:32:33.971Z,13.22
2019-04-11T05:35:03.038Z,13.08
2019-04-11T05:37:33.251Z,12.80
2019-04-11T05:40:03.091Z,10.63
2019-04-11T05:42:33.302Z,9.90
2019-04-11T05:45:03.285Z,10.15
2019-04-11T05:47:32.304Z,9.73
2019-04-11T05:50:10.006Z,9.47
2019-04-11T05:52:36.657Z,9.03
2019-04-11T05:55:10.587Z,9.97
2019-04-11T05:57:40.458Z,9.40
2019-04-11T06:00:12.400Z,9.90
2019-04-11T06:02:43.723Z,10.20
2019-04-11T06:05:32.488Z,9.27
2019-04-11T06:08:00.170Z,9.33
2019-04-11T06:10:33.807Z,10.03
2019-04-11T06:13:13.520Z,9.67
2019-04-11T06:15:44.393Z,10.60
2019-04-11T06:18:31.245Z,9.83
2019-04-11T06:20:57.838Z,10.07
2019-04-11T06:23:39.120Z,9.27
2019-04-11T06:26:26.878Z,10.80
2019-04-11T06:29:14.683Z,10.30
2019-04-11T06:31:51.949Z,9.57
2019-04-11T06:34:22.630Z,10.47
2019-04-11T06:37:01.697Z,11.43
2019-04-11T06:39:32.123Z,10.10
2019-04-11T06:42:19.268Z,10.37
2019-04-11T06:44:56.402Z,9.90
2019-04-11T06:47:36.770Z,10.07
2019-04-11T06:50:17.364Z,10.13
2019-04-11T06:52:47.293Z,9.83
2019-04-11T06:55:35.043Z,9.63
2019-04-11T06:58:06.693Z,10.63
2019-04-11T07:00:36.963Z,11.07
2019-04-11T07:03:18.720Z,10.40
2019-04-11T07:05:40.557Z,11.60
2019-04-11T07:08:09.702Z,11.73
2019-04-11T07:10:43.229Z,10.57
2019-04-11T07:13:20.674Z,8.83
2019-04-11T07:15:50.609Z,11.13
2019-04-11T07:18:37.870Z,9.63
2019-04-11T07:21:08.694Z,9.93
2019-04-11T07:23:55.540Z,11.07
2019-04-11T07:26:33.075Z,9.80
2019-04-11T07:29:19.445Z,11.53
2019-04-11T07:31:57.070Z,10.70
2019-04-11T07:34:43.637Z,11.30
2019-04-11T07:37:26.291Z,10.43
2019-04-11T07:40:13.133Z,10.67
2019-04-11T07:43:01.890Z,11.20
2019-04-11T07:45:32.223Z,10.40
2019-04-11T07:48:19.370Z,10.00
2019-04-11T07:50:48.766Z,10.60
2019-04-11T07:53:19.775Z,11.57
2019-04-11T07:55:48.864Z,10.20
2019-04-11T07:58:24.234Z,10.43
2019-04-11T08:00:57.729Z,14.27
2019-04-11T08:03:45.050Z,11.17
2019-04-11T08:06:22.218Z,9.77
2019-04-11T08:09:11.300Z,7.73
2019-04-11T08:11:42.197Z,11.87
2019-04-11T08:14:16.157Z,10.77
2019-04-11T08:16:55.795Z,10.67
2019-04-11T08:19:42.741Z,11.07
2019-04-11T08:22:30.690Z,10.40
2019-04-11T08:25:01.401Z,10.37
2019-04-11T08:27:48.446Z,11.03
2019-04-11T08:30:06.618Z,11.83
2019-04-11T08:32:40.449Z,11.43
2019-04-11T08:35:15.758Z,11.40
2019-04-11T08:38:02.723Z,10.73
2019-04-11T08:40:36.208Z,12.00
2019-04-11T08:43:17.075Z,12.60
2019-04-11T08:45:48.526Z,12.23
2019-04-11T08:48:19.111Z,10.97
2019-04-11T08:50:50.433Z,10.53
2019-04-11T08:53:21.046Z,12.10
2019-04-11T08:55:55.793Z,11.13
2019-04-11T08:58:24.717Z,11.70
2019-04-11T09:01:00.417Z,11.37
2019-04-11T09:03:33.549Z,11.23
2019-04-11T09:06:04.468Z,10.73
2019-04-11T09:08:51.174Z,10.13
2019-04-11T09:11:24.729Z,11.73
2019-04-11T09:14:11.605Z,11.37
2019-04-11T09:16:45.752Z,12.03
2019-04-11T09:19:32.927Z,10.23
2019-04-11T09:22:13.097Z,11.27
2019-04-11T09:24:44.067Z,10.90
2019-04-11T09:27:31.133Z,12.00
2019-04-11T09:30:18.947Z,10.90
2019-04-11T09:32:52.833Z,10.87
2019-04-11T09:35:40.010Z,11.37
2019-04-11T09:38:11.470Z,11.87
2019-04-11T09:40:54.239Z,10.50
2019-04-11T09:43:36.811Z,11.40
2019-04-11T09:46:26.219Z,11.87
2019-04-11T09:49:02.892Z,12.37
2019-04-11T09:51:36.280Z,11.40
2019-04-11T09:54:15.936Z,9.87
2019-04-11T09:57:04.840Z,12.60
2019-04-11T09:59:47.725Z,13.53
2019-04-11T10:02:35.314Z,9.87
2019-04-11T10:05:07.524Z,11.23
2019-04-11T10:07:44.144Z,11.63
2019-04-11T10:10:33.082Z,11.33
2019-04-11T10:13:20.563Z,10.87
2019-04-11T10:16:07.511Z,11.10
2019-04-11T10:18:53.644Z,12.33
2019-04-11T10:21:24.694Z,10.87
2019-04-11T10:24:09.432Z,12.17
2019-04-11T10:26:42.946Z,12.73
2019-04-11T10:29:31.542Z,12.37
2019-04-11T10:32:01.287Z,11.37
2019-04-11T10:34:50.068Z,11.63
2019-04-11T10:37:20.374Z,10.97
2019-04-11T10:39:51.331Z,12.37
2019-04-11T10:42:20.277Z,11.17
2019-04-11T10:44:56.356Z,11.07
2019-04-11T10:47:27.046Z,11.97
2019-04-11T10:50:15.346Z,12.00
2019-04-11T10:52:52.968Z,12.87
2019-04-11T10:55:23.681Z,12.67
2019-04-11T10:58:04.630Z,12.80
2019-04-11T11:00:38.024Z,14.17
2019-04-11T11:03:18.177Z,12.13
2019-04-11T11:06:00.885Z,11.57
2019-04-11T11:08:37.615Z,13.57
2019-04-11T11:11:08.271Z,12.27
2019-04-11T11:13:39.535Z,12.57
2019-04-11T11:16:10.042Z,11.43
2019-04-11T11:19:03.637Z,10.63
2019-04-11T11:21:11.649Z,12.60
2019-04-11T11:23:57.091Z,11.73
2019-04-11T11:26:26.545Z,13.57
2019-04-11T11:29:07.051Z,13.70
2019-04-11T11:31:36.288Z,12.73
2019-04-11T11:34:07.646Z,11.83
2019-04-11T11:36:56.757Z,13.53
2019-04-11T11:39:33.434Z,12.43
2019-04-11T11:42:20.182Z,11.63
2019-04-11T11:44:55.329Z,12.00
2019-04-11T11:47:43.171Z,13.27
2019-04-11T11:50:20.040Z,13.07
2019-04-11T11:53:08.209Z,12.00
2019-04-11T11:55:43.137Z,12.97
2019-04-11T11:58:20.027Z,12.03
2019-04-11T12:00:53.500Z,12.30
2019-04-11T12:03:27.717Z,13.27
2019-04-11T12:05:58.982Z,11.20
2019-04-11T12:08:39.209Z,14.10
2019-04-11T12:11:10.197Z,14.50
2019-04-11T12:13:40.949Z,14.23
2019-04-11T12:16:21.881Z,13.17
2019-04-11T12:19:06.843Z,12.77
2019-04-11T12:21:37.111Z,13.07
2019-04-11T12:24:25.075Z,14.03
2019-04-11T12:27:02.342Z,13.20
2019-04-11T12:29:38.682Z,13.93
2019-04-11T12:32:10.290Z,12.33
2019-04-11T12:34:45.049Z,12.67
2019-04-11T12:37:19.783Z,12.00
2019-04-11T12:40:09.510Z,10.67
2019-04-11T12:42:41.391Z,12.90
2019-04-11T12:45:15.067Z,11.83
2019-04-11T12:47:44.475Z,12.50
2019-04-11T12:50:27.589Z,12.57
2019-04-11T12:52:57.929Z,11.60
2019-04-11T12:55:31.256Z,11.97
2019-04-11T12:58:10.454Z,11.10
2019-04-11T13:00:46.798Z,12.30
2019-04-11T13:03:33.594Z,13.77
2019-04-11T13:06:19.335Z,12.20
2019-04-11T13:08:58.649Z,11.23
2019-04-11T13:11:28.902Z,10.93
2019-04-11T13:14:05.301Z,11.90
2019-04-11T13:16:34.026Z,10.60
2019-04-11T13:19:22.564Z,11.77
2019-04-11T13:21:52.933Z,11.43
2019-04-11T13:24:39.412Z,11.37
2019-04-11T13:27:15.980Z,12.37
2019-04-11T13:29:46.507Z,11.83
2019-04-11T13:32:19.856Z,11.90
2019-04-11T13:34:50.165Z,11.07
2019-04-11T13:37:36.670Z,11.97
2019-04-11T13:40:24.215Z,10.57
2019-04-11T13:43:09.581Z,10.03
2019-04-11T13:45:56.542Z,11.43
2019-04-11T13:48:44.931Z,10.63
2019-04-11T13:51:18.318Z,11.00
2019-04-11T13:54:05.278Z,10.30
2019-04-11T13:56:52.033Z,11.07
2019-04-11T13:59:37.038Z,8.03
2019-04-11T14:02:16.969Z,11.17
2019-04-11T14:04:47.906Z,10.80
2019-04-11T14:07:21.195Z,10.50
2019-04-11T14:09:59.160Z,10.03
2019-04-11T14:16:10.718Z,9.60
2019-04-11T14:18:57.874Z,11.03
2019-04-11T14:21:28.404Z,9.93
2019-04-11T14:24:14.720Z,9.97
2019-04-11T14:26:51.035Z,11.37
2019-04-11T14:29:21.466Z,11.97
2019-04-11T14:31:55.757Z,10.40
2019-04-11T14:34:26.108Z,10.93
2019-04-11T14:37:05.458Z,8.90
2019-04-11T14:39:51.935Z,8.73
2019-04-11T14:42:22.291Z,10.43
2019-04-11T14:44:52.783Z,8.40
2019-04-11T14:47:39.292Z,10.43
2019-04-11T14:50:13.609Z,11.13
2019-04-11T14:52:47.248Z,11.13
2019-04-11T14:55:19.060Z,10.77
2019-04-11T14:57:53.544Z,10.43
2019-04-11T15:00:31.584Z,11.23
2019-04-11T15:03:02.236Z,10.63
2019-04-11T15:05:32.559Z,10.20
2019-04-11T15:08:02.257Z,10.93
2019-04-11T15:10:51.270Z,9.23
2019-04-11T15:13:21.476Z,8.73
2019-04-11T15:15:54.766Z,10.07
2019-04-11T15:18:26.538Z,10.30
2019-04-11T15:20:56.013Z,9.13
2019-04-11T15:23:26.576Z,10.90
2019-04-11T15:26:13.331Z,9.03
2019-04-11T15:28:55.618Z,9.50
2019-04-11T15:31:38.781Z,9.70
2019-04-11T15:34:13.849Z,9.37
2019-04-11T15:36:44.278Z,9.63
2019-04-11T15:39:30.805Z,8.20
2019-04-11T15:42:02.342Z,9.40
2019-04-11T15:44:31.705Z,7.37
2019-04-11T15:47:02.045Z,8.63
2019-04-11T15:49:32.461Z,9.73
2019-04-11T15:52:06.231Z,9.77
2019-04-11T15:54:51.184Z,9.13
2019-04-11T15:57:30.447Z,9.73
2019-04-11T16:00:13.591Z,10.47
2019-04-11T16:03:01.230Z,9.37
2019-04-11T16:05:37.546Z,9.77
2019-04-11T16:08:13.741Z,8.63
2019-04-11T16:10:52.878Z,9.47
2019-04-11T16:13:39.462Z,10.03
2019-04-11T16:16:11.872Z,10.67
2019-04-11T16:18:57.387Z,8.93
2019-04-11T16:21:43.062Z,9.47
2019-04-11T16:24:30.024Z,9.43
2019-04-11T16:27:06.372Z,8.80
2019-04-11T16:29:39.594Z,8.50
2019-04-11T16:32:15.678Z,7.30
2019-04-11T16:34:48.540Z,9.43
2019-04-11T16:37:17.946Z,8.27
2019-04-11T16:40:05.042Z,8.57
2019-04-11T16:42:54.303Z,8.73
2019-04-11T16:45:54.659Z,9.23
2019-04-11T16:48:25.540Z,9.00
2019-04-11T16:54:39.676Z,9.23
2019-04-11T16:57:08.607Z,8.27
2019-04-11T16:59:37.325Z,8.13
2019-04-11T17:02:06.323Z,9.00
2019-04-11T17:04:35.097Z,8.63
2019-04-11T17:07:14.717Z,8.07
2019-04-11T17:09:45.041Z,8.57
2019-04-11T17:12:13.776Z,8.50
2019-04-11T17:14:42.516Z,8.67
2019-04-11T17:17:15.207Z,8.70
2019-04-11T17:19:41.988Z,8.20
2019-04-11T17:22:10.881Z,8.07
2019-04-11T17:24:39.768Z,8.77
2019-04-11T17:27:08.619Z,7.43
2019-04-11T17:29:41.424Z,7.47
2019-04-11T17:32:10.473Z,8.20
2019-04-11T17:34:39.428Z,8.50
2019-04-11T17:37:08.293Z,8.80
2019-04-11T17:39:37.375Z,7.80
2019-04-11T17:42:06.923Z,9.03
2019-04-11T17:44:35.784Z,7.13
2019-04-11T17:47:04.566Z,7.33
2019-04-11T17:49:33.304Z,8.57
2019-04-11T17:52:04.949Z,7.73
2019-04-11T17:54:32.713Z,7.27
2019-04-11T17:57:01.810Z,7.57
2019-04-11T17:59:30.917Z,7.47
2019-04-11T18:02:00.003Z,7.70
2019-04-11T18:04:29.113Z,7.23
2019-04-11T18:06:58.094Z,7.37
2019-04-11T18:09:27.091Z,7.87
2019-04-11T18:11:56.712Z,7.53
2019-04-11T18:14:25.793Z,7.30
2019-04-11T18:16:54.789Z,8.20
2019-04-11T18:19:23.679Z,8.00
2019-04-11T18:21:52.779Z,7.93
2019-04-11T18:24:21.876Z,6.63
2019-04-11T18:26:51.952Z,6.90
2019-04-11T18:29:23.042Z,7.30
2019-04-11T18:31:52.031Z,6.63
2019-04-11T18:38:02.639Z,6.63
2019-04-11T18:40:31.419Z,8.27
2019-04-11T18:43:00.507Z,6.10
2019-04-11T18:45:29.371Z,6.97
2019-04-11T18:47:58.506Z,7.13
2019-04-11T18:50:28.824Z,6.27
2019-04-11T18:52:59.589Z,6.73
2019-04-11T18:55:28.858Z,7.70
2019-04-11T18:57:57.845Z,6.47
2019-04-11T19:00:27.547Z,7.00
2019-04-11T19:02:56.662Z,7.57
2019-04-11T19:05:29.012Z,7.90
2019-04-11T19:07:56.500Z,6.50
2019-04-11T19:10:25.596Z,7.40
2019-04-11T19:12:54.691Z,6.80
2019-04-11T19:15:24.363Z,7.40
2019-04-11T19:21:34.238Z,7.73
2019-04-11T19:24:15.246Z,6.77
2019-04-11T19:26:46.427Z,7.60
2019-04-11T19:29:15.078Z,6.43
2019-04-11T19:31:44.071Z,6.80
2019-04-11T19:34:12.974Z,6.80
2019-04-11T19:36:42.402Z,7.67
2019-04-11T19:39:13.886Z,7.27
2019-04-11T19:41:42.404Z,7.80
2019-04-11T19:44:11.371Z,8.00
2019-04-11T19:46:41.019Z,8.07
2019-04-11T19:49:10.362Z,8.33
2019-04-11T19:51:39.179Z,8.27
2019-04-11T19:54:07.929Z,7.37
2019-04-11T19:56:38.481Z,8.30
2019-04-11T19:59:07.518Z,8.03
2019-04-11T20:01:36.379Z,8.30
2019-04-11T20:04:05.123Z,7.27
2019-04-11T20:06:33.837Z,7.77
2019-04-11T20:09:03.085Z,7.47
2019-04-11T20:11:31.897Z,8.37
2019-04-11T20:14:02.924Z,7.87
2019-04-11T20:16:41.009Z,7.50
2019-04-11T20:19:01.960Z,8.23
2019-04-11T20:21:31.042Z,7.50
2019-04-11T20:23:59.669Z,7.47
2019-04-11T20:26:28.460Z,8.20
2019-04-11T20:28:58.552Z,6.97
2019-04-11T20:31:27.296Z,8.17
2019-04-11T20:33:55.959Z,8.80
2019-04-11T20:36:33.305Z,7.20
2019-04-11T20:38:55.384Z,7.50
2019-04-11T20:41:24.543Z,8.00
2019-04-11T20:43:56.946Z,8.03
2019-04-11T20:48:55.446Z,8.70
2019-04-11T20:51:24.178Z,7.67
2019-04-11T20:53:52.724Z,7.90
2019-04-11T20:56:24.499Z,7.70
2019-04-11T20:58:51.844Z,8.07
2019-04-11T21:01:20.516Z,8.67
2019-04-11T21:03:49.382Z,8.47
2019-04-11T21:06:18.561Z,7.87
2019-04-11T21:08:47.617Z,8.73
2019-04-11T21:11:18.631Z,8.50
2019-04-11T21:13:47.763Z,7.95
2019-04-11T21:16:16.782Z,8.35
2019-04-11T21:18:45.677Z,7.92
2019-04-11T21:21:14.571Z,8.47
2019-04-11T21:23:43.661Z,9.37
2019-04-11T21:26:12.557Z,8.80
2019-04-11T21:28:41.447Z,8.55
2019-04-11T21:34:52.914Z,7.95
2019-04-11T21:37:21.852Z,7.97
2019-04-11T21:39:50.704Z,8.45
2019-04-11T21:42:19.640Z,7.73
2019-04-11T21:44:48.502Z,7.90
2019-04-11T21:47:17.290Z,8.43
2019-04-11T21:49:45.974Z,8.15
2019-04-11T21:52:14.998Z,7.87
2019-04-11T21:54:45.288Z,7.65
2019-04-11T21:57:14.381Z,8.33
2019-04-11T21:59:42.961Z,7.17
2019-04-11T22:02:13.373Z,7.78
2019-04-11T22:04:42.269Z,7.22
2019-04-11T22:07:11.011Z,7.22
2019-04-11T22:09:39.707Z,7.05
2019-04-11T22:12:08.804Z,7.28
2019-04-11T22:14:41.370Z,7.67
2019-04-11T22:17:09.042Z,8.10
2019-04-11T22:19:37.867Z,7.12
2019-04-11T22:22:06.679Z,7.25
2019-04-11T22:24:35.480Z,8.13
2019-04-11T22:27:04.400Z,7.35
2019-04-11T22:29:33.253Z,7.47
2019-04-11T22:32:02.159Z,7.47
2019-04-11T22:34:38.712Z,7.60
2019-04-11T22:37:07.545Z,6.55
2019-04-11T22:39:36.221Z,7.30
2019-04-11T22:42:05.121Z,7.78
2019-04-11T22:44:35.547Z,7.87
2019-04-11T22:47:07.580Z,8.25
2019-04-11T22:49:36.850Z,8.28
2019-04-11T22:52:05.202Z,7.67
2019-04-11T22:54:34.024Z,7.53
2019-04-11T22:57:02.942Z,7.97
2019-04-11T22:59:31.727Z,7.45
2019-04-11T23:02:02.119Z,7.45
2019-04-11T23:04:30.757Z,7.42
2019-04-11T23:06:59.522Z,8.40
2019-04-11T23:09:28.373Z,7.70
2019-04-11T23:11:57.354Z,8.15
2019-04-11T23:14:26.143Z,7.15
2019-04-11T23:16:56.678Z,6.90
2019-04-11T23:19:25.287Z,7.95
2019-04-11T23:21:54.021Z,7.83
2019-04-11T23:24:22.668Z,7.53
2019-04-11T23:26:51.816Z,7.83
2019-04-11T23:29:20.722Z,8.55
2019-04-11T23:31:50.761Z,7.97
2019-04-11T23:34:22.120Z,7.58
2019-04-11T23:36:51.297Z,7.65
2019-04-11T23:39:22.733Z,8.03
2019-04-11T23:41:51.232Z,8.73
2019-04-11T23:44:20.922Z,7.55
2019-04-11T23:46:52.043Z,8.85
2019-04-11T23:49:20.352Z,8.20
2019-04-11T23:51:49.042Z,8.43
2019-04-11T23:54:23.026Z,8.55
2019-04-11T23:56:48.117Z,9.23
2019-04-11T23:59:16.883Z,8.70
